Cedar Creek, TX (78612)

7:58 PM CDT on August 30, 2015 (GMT -0500)
APRSWXNET | | Change Station
CLOSE
Current Station
Personal Weather Station
Location: Cedar Creek, TX
Elevation: 419 ft
Nearby Weather Stations

Elev 419 ft 30.08 °N, 97.50 °W | Updated 29 minutes ago

Partly Cloudy
Partly Cloudy
86 °F
Feels Like 88 °F
N
0
Wind Variable Wind from ESE
Gusts 0.0 mph

Today
High -- | Low -- °F
--% Chance of Precip.
Yesterday
High -- | Low -- °F
Precip. -- in
7:05 AM 7:55 PM
Full, 98% visible
Pressure 29.93 in
Visibility 10.0 miles
Clouds Few 7000 ft
Scattered Clouds 12000 ft
Scattered Clouds 15000 ft
Mostly Cloudy 25000 ft
Heat Index 88 °F
Dew Point 66 °F
Humidity 51%
Rainfall in
Snow Depth Not available.
UV 0 out of 12
Pollen 6.30 out of 12
Air Quality Not available.
Flu Activity Not available.
METAR KAUS 310053Z 11004KT 10SM FEW070 SCT120 SCT150 BKN250 29/17 A2996 RMK AO2 SLP134 T02940172
Pressure 29.93 in
Visibility 10.0 miles
Clouds Few 7000 ft
Scattered Clouds 12000 ft
Scattered Clouds 15000 ft
Mostly Cloudy 25000 ft
Heat Index 88 °F
Dew Point 66 °F
Humidity 51%
Rainfall in
Snow Depth Not available.
UV 0 out of 12
Pollen 6.30 out of 12
Air Quality Not available.
Flu Activity Not available.
METAR KAUS 310053Z 11004KT 10SM FEW070 SCT120 SCT150 BKN250 29/17 A2996 RMK AO2 SLP134 T02940172

10-Day Weather Forecast

×

Almanac

Astronomy

Aug. 30, 2015 Rise Set
Actual Time
Civil Twilight
Nautical Twilight
Astronomical Twilight
Moon
Length of Visible Light
Length of Day
Tomorrow will be .
, % of the Moon is Illuminated

Today's Extremes

State Highs State Lows

Community

WunderPhotos

Upload Photos

1,851,116 photos uploaded!

WunderBlogs® & News

Nearby

Air Quality

  Air Quality AQ Index Pollutant
Not available.

Snow Depth

Station Depth Elevation

Earthquake Activity

City Distance Mag. Time & Date
Minimum magnitude displayed is 2.5.

Coastal Water Temperatures

Place Temperature

Stations

Nearby Weather Stations

Station Location Temp. Windchill Dew Point Humidity Wind Precip. Elev Updated Type